Time;durP1;ratioP1;P1;durP2;ratioP2;P2;SDS_P1;SDS_P2;PMS_P1;PMS_P2;Temp;Humidity;BMP_temperature;BMP_pressure;BME280_temperature;BME280_humidity;BME280_pressure;Samples;Min_cycle;Max_cycle;Signal;HPM_P1;HPM_P2
2022/02/18 00:01:00;;;;;;;6.63;1.25;;;8.70;87.20;;;;;;5013483;28;20368;-76
2022/02/18 00:03:27;;;;;;;10.27;1.35;;;8.70;87.60;;;;;;4996412;28;20305;-76
2022/02/18 00:05:54;;;;;;;12.70;1.63;;;8.80;88.00;;;;;;5013513;28;20041;-75
2022/02/18 00:08:20;;;;;;;13.50;1.73;;;8.90;88.00;;;;;;5013395;28;20025;-76
2022/02/18 00:10:47;;;;;;;13.10;1.27;;;9.10;87.90;;;;;;5013296;28;20088;-76
2022/02/18 00:13:13;;;;;;;8.02;1.92;;;9.10;87.60;;;;;;5013216;28;20025;-75
2022/02/18 00:15:39;;;;;;;8.27;1.55;;;9.20;87.50;;;;;;5013094;28;20029;-77
2022/02/18 00:18:06;;;;;;;7.88;1.60;;;9.30;87.30;;;;;;4996385;28;20021;-76
2022/02/18 00:20:35;;;;;;;9.70;1.87;;;9.30;87.10;;;;;;4996030;28;20038;-76
2022/02/18 00:23:03;;;;;;;15.82;2.00;;;9.20;87.40;;;;;;5013047;28;20137;-76
2022/02/18 00:25:29;;;;;;;16.48;1.67;;;9.20;87.10;;;;;;4995410;28;20099;-76
2022/02/18 00:27:54;;;;;;;9.40;1.27;;;9.30;87.10;;;;;;5012252;28;20655;-76
2022/02/18 00:30:20;;;;;;;8.00;1.08;;;9.20;86.80;;;;;;5013287;28;20024;-76
2022/02/18 00:32:46;;;;;;;7.50;1.58;;;9.10;87.00;;;;;;5013065;28;20489;-76
2022/02/18 00:35:12;;;;;;;10.40;1.50;;;9.10;87.60;;;;;;5012460;28;20046;-77
2022/02/18 00:37:37;;;;;;;11.45;1.95;;;9.10;87.90;;;;;;5012605;28;20108;-75
2022/02/18 00:40:04;;;;;;;5.20;1.33;;;9.10;87.80;;;;;;5012761;28;20030;-75
2022/02/18 00:42:29;;;;;;;9.65;1.48;;;9.10;88.00;;;;;;5012528;28;20109;-76
2022/02/18 00:44:55;;;;;;;8.57;1.17;;;9.10;88.30;;;;;;5013190;28;20184;-76
2022/02/18 00:47:21;;;;;;;9.15;1.38;;;9.10;88.50;;;;;;5012720;28;20057;-76
2022/02/18 00:49:47;;;;;;;9.80;1.65;;;9.00;89.50;;;;;;5012575;28;20458;-77
2022/02/18 00:52:15;;;;;;;6.93;1.40;;;9.00;90.20;;;;;;5012780;28;20030;-76
2022/02/18 00:54:40;;;;;;;9.15;1.70;;;9.00;90.50;;;;;;4994932;28;20030;-77
2022/02/18 00:57:06;;;;;;;17.55;1.95;;;8.90;91.20;;;;;;4995528;28;20022;-76
2022/02/18 00:59:32;;;;;;;12.48;1.80;;;8.80;91.80;;;;;;5012623;28;20387;-76
2022/02/18 01:01:57;;;;;;;11.88;1.83;;;8.80;92.40;;;;;;5012357;28;20045;-76
2022/02/18 01:04:23;;;;;;;17.75;2.13;;;8.80;92.50;;;;;;5012463;28;20038;-76
2022/02/18 01:06:48;;;;;;;11.23;1.70;;;8.80;92.80;;;;;;5012369;28;20030;-77
2022/02/18 01:09:14;;;;;;;6.78;1.58;;;8.90;93.10;;;;;;5012671;28;20037;-75
2022/02/18 01:11:39;;;;;;;10.18;1.73;;;8.60;93.90;;;;;;5012285;28;20030;-77
2022/02/18 01:14:05;;;;;;;9.60;1.90;;;8.70;94.10;;;;;;5012168;28;20041;-76
2022/02/18 01:16:32;;;;;;;14.15;1.95;;;8.60;94.60;;;;;;4994782;28;20038;-76
2022/02/18 01:18:58;;;;;;;7.63;1.80;;;8.60;95.20;;;;;;5012115;28;20109;-76
2022/02/18 01:21:25;;;;;;;11.70;1.77;;;8.50;95.60;;;;;;5012428;28;20022;-75
2022/02/18 01:23:52;;;;;;;8.45;1.75;;;8.30;96.10;;;;;;4994578;28;20137;-77
2022/02/18 01:26:17;;;;;;;13.40;1.98;;;8.30;96.40;;;;;;4994385;28;20117;-78
2022/02/18 01:28:44;;;;;;;12.25;2.10;;;8.30;96.70;;;;;;5012027;28;20112;-77
2022/02/18 01:31:09;;;;;;;7.05;1.70;;;8.40;96.90;;;;;;5011969;28;20422;-76
2022/02/18 01:33:35;;;;;;;11.05;1.83;;;8.30;97.00;;;;;;5011954;28;20105;-78
2022/02/18 01:36:01;;;;;;;7.68;1.70;;;8.40;97.00;;;;;;4994763;28;20073;-77
2022/02/18 01:38:26;;;;;;;4.30;1.73;;;8.30;97.10;;;;;;5011453;28;20064;-76
2022/02/18 01:40:52;;;;;;;7.88;1.25;;;8.20;97.30;;;;;;5012267;28;20118;-78
2022/02/18 01:43:18;;;;;;;10.90;1.70;;;8.10;97.60;;;;;;5011778;28;20034;-76
2022/02/18 01:45:44;;;;;;;6.30;1.45;;;8.20;97.30;;;;;;5011766;28;20021;-78
2022/02/18 01:48:10;;;;;;;13.63;1.98;;;8.10;97.60;;;;;;5012412;28;20036;-76
2022/02/18 01:50:36;;;;;;;10.65;1.58;;;8.20;97.70;;;;;;4994359;28;20117;-76
2022/02/18 01:53:02;;;;;;;13.40;2.28;;;8.10;97.90;;;;;;5011789;28;20041;-77
2022/02/18 01:55:28;;;;;;;7.53;1.52;;;7.90;98.20;;;;;;5011794;28;20067;-77
2022/02/18 01:57:55;;;;;;;8.88;1.95;;;8.00;98.20;;;;;;4994160;28;20038;-77
2022/02/18 02:00:23;;;;;;;7.05;1.55;;;8.20;97.80;;;;;;4994769;28;20032;-75
2022/02/18 02:02:49;;;;;;;8.75;2.38;;;8.20;97.70;;;;;;5011717;28;20042;-77
2022/02/18 02:05:16;;;;;;;7.13;1.67;;;8.30;97.50;;;;;;4994262;28;20515;-76
2022/02/18 02:07:43;;;;;;;7.75;1.58;;;8.30;97.20;;;;;;4994453;28;20030;-76
2022/02/18 02:10:11;;;;;;;14.23;2.28;;;8.30;97.30;;;;;;5011464;28;20072;-77
2022/02/18 02:12:42;;;;;;;9.50;1.23;;;8.40;97.20;;;;;;5011528;28;20033;-75
2022/02/18 02:15:09;;;;;;;9.85;1.38;;;8.30;97.30;;;;;;4994649;28;20453;-76
2022/02/18 02:17:35;;;;;;;6.57;1.70;;;8.40;97.10;;;;;;5011609;28;20040;-76
2022/02/18 02:20:02;;;;;;;9.85;1.90;;;8.50;96.90;;;;;;5011481;28;20342;-76
2022/02/18 02:22:28;;;;;;;7.03;2.15;;;8.50;96.70;;;;;;5011289;28;20184;-77
2022/02/18 02:24:54;;;;;;;5.65;2.05;;;8.50;96.60;;;;;;4994095;28;20423;-77
2022/02/18 02:27:21;;;;;;;8.32;2.45;;;8.50;96.40;;;;;;5011725;28;20030;-76
2022/02/18 02:29:48;;;;;;;12.98;2.47;;;8.50;96.40;;;;;;4993912;28;20026;-77
2022/02/18 02:32:13;;;;;;;8.57;2.45;;;8.40;96.40;;;;;;5011437;28;20040;-76
2022/02/18 02:34:39;;;;;;;10.02;2.35;;;8.40;96.50;;;;;;5010786;28;20050;-76
2022/02/18 02:37:05;;;;;;;9.02;2.53;;;8.40;96.50;;;;;;5030102;28;20367;-77
2022/02/18 02:39:33;;;;;;;8.50;2.50;;;8.40;96.50;;;;;;5030890;28;20028;-76
2022/02/18 02:42:00;;;;;;;13.85;2.60;;;8.40;96.60;;;;;;5031407;28;20517;-77
2022/02/18 02:44:26;;;;;;;18.83;2.58;;;8.40;96.40;;;;;;5031106;28;20128;-76
2022/02/18 02:46:51;;;;;;;10.07;2.85;;;8.50;96.20;;;;;;5031074;28;20366;-77
2022/02/18 02:49:17;;;;;;;11.93;2.78;;;8.50;96.10;;;;;;5031067;28;20026;-76
2022/02/18 02:51:42;;;;;;;12.32;2.80;;;8.50;96.00;;;;;;5034689;28;20418;-76
2022/02/18 02:54:08;;;;;;;14.95;2.95;;;8.50;96.00;;;;;;5034828;28;20051;-77
2022/02/18 02:56:34;;;;;;;13.82;2.58;;;8.50;96.00;;;;;;5034466;28;20026;-76
2022/02/18 02:59:00;;;;;;;12.93;2.88;;;8.50;96.10;;;;;;5034437;28;20018;-76
2022/02/18 03:01:25;;;;;;;14.02;2.10;;;8.40;96.20;;;;;;5034428;28;20087;-76
2022/02/18 03:03:51;;;;;;;16.00;3.00;;;8.40;96.30;;;;;;5034350;28;20025;-76
2022/02/18 03:06:16;;;;;;;15.55;2.35;;;8.30;96.20;;;;;;5034590;28;20080;-76
2022/02/18 03:08:42;;;;;;;17.90;3.40;;;8.30;96.30;;;;;;5034356;28;20041;-77
2022/02/18 03:11:17;;;;;;;15.38;2.70;;;8.20;96.40;;;;;;5034092;28;20072;-75
2022/02/18 03:13:50;;;;;;;20.17;2.90;;;8.10;96.80;;;;;;5034218;28;20034;-76
2022/02/18 03:16:17;;;;;;;16.58;2.67;;;8.20;96.80;;;;;;5034062;28;20048;-77
2022/02/18 03:18:43;;;;;;;11.30;2.35;;;8.30;96.50;;;;;;5034177;28;20120;-75
2022/02/18 03:21:10;;;;;;;15.85;2.97;;;8.20;96.60;;;;;;5034553;28;20026;-77
2022/02/18 03:23:36;;;;;;;15.45;2.90;;;8.30;96.60;;;;;;5034067;28;20483;-77
2022/02/18 03:26:03;;;;;;;10.50;2.45;;;8.20;96.80;;;;;;5034003;28;20471;-77
2022/02/18 03:28:28;;;;;;;17.65;2.95;;;8.10;96.70;;;;;;5016710;28;20117;-76
2022/02/18 03:30:54;;;;;;;16.00;3.65;;;8.10;96.90;;;;;;5033825;28;20130;-76
2022/02/18 03:33:20;;;;;;;10.40;2.70;;;8.00;97.00;;;;;;5017062;28;20033;-77
2022/02/18 03:35:45;;;;;;;14.93;3.10;;;8.10;97.00;;;;;;5016210;28;20041;-75
2022/02/18 03:38:11;;;;;;;13.38;2.60;;;8.00;97.10;;;;;;5033576;28;20127;-77
2022/02/18 03:40:37;;;;;;;13.02;2.53;;;8.00;97.20;;;;;;5033964;28;20064;-76
2022/02/18 03:43:03;;;;;;;13.50;3.03;;;8.10;97.10;;;;;;5034327;28;20033;-76
2022/02/18 03:45:29;;;;;;;20.48;3.33;;;8.10;97.20;;;;;;5033638;28;20103;-78
2022/02/18 03:47:55;;;;;;;17.45;2.90;;;8.10;97.10;;;;;;5034163;28;20041;-76
2022/02/18 03:50:21;;;;;;;14.23;2.47;;;8.20;97.10;;;;;;5034300;28;20044;-77
2022/02/18 03:52:46;;;;;;;23.90;3.30;;;8.10;97.20;;;;;;5036096;28;20030;-77
2022/02/18 03:55:12;;;;;;;21.33;3.10;;;8.10;97.30;;;;;;5037386;28;20034;-78
2022/02/18 03:57:38;;;;;;;14.52;3.28;;;8.10;97.50;;;;;;5018140;28;20863;-75
2022/02/18 04:00:05;;;;;;;13.55;2.47;;;8.10;97.50;;;;;;5034657;28;20096;-76
2022/02/18 04:02:31;;;;;;;21.27;2.95;;;8.10;97.20;;;;;;5033092;28;20053;-76
2022/02/18 04:04:58;;;;;;;19.35;3.30;;;8.10;97.50;;;;;;5033294;28;20592;-76
2022/02/18 04:07:23;;;;;;;23.73;3.27;;;8.10;97.40;;;;;;5033404;28;20041;-77
2022/02/18 04:09:49;;;;;;;17.00;3.05;;;8.10;97.40;;;;;;5033469;28;20251;-78
2022/02/18 04:12:15;;;;;;;13.23;2.95;;;8.20;97.30;;;;;;5034132;28;20068;-75
2022/02/18 04:14:40;;;;;;;15.90;2.72;;;8.20;97.20;;;;;;5033008;28;20037;-77
2022/02/18 04:17:06;;;;;;;20.75;3.15;;;8.20;97.10;;;;;;5033008;28;20116;-77
2022/02/18 04:19:31;;;;;;;17.00;2.38;;;8.30;97.20;;;;;;5033099;28;20491;-78
2022/02/18 04:21:57;;;;;;;14.18;2.88;;;8.30;97.10;;;;;;5032844;28;20022;-78
2022/02/18 04:24:22;;;;;;;14.90;3.30;;;8.30;97.10;;;;;;5033329;28;20029;-77
2022/02/18 04:26:48;;;;;;;16.27;3.13;;;8.30;97.30;;;;;;5032580;28;20119;-77
2022/02/18 04:29:13;;;;;;;17.98;3.15;;;8.30;97.00;;;;;;5032870;28;20179;-77
2022/02/18 04:31:39;;;;;;;18.75;4.07;;;8.30;97.20;;;;;;5032784;28;20045;-78
2022/02/18 04:34:05;;;;;;;21.42;3.58;;;8.40;97.10;;;;;;5032266;28;20033;-76
2022/02/18 04:36:30;;;;;;;18.27;3.53;;;8.30;97.20;;;;;;5032521;28;20029;-77
2022/02/18 04:38:56;;;;;;;21.20;3.80;;;8.20;97.50;;;;;;5032893;28;20093;-77
2022/02/18 04:41:22;;;;;;;19.00;3.20;;;8.20;97.80;;;;;;5032452;28;20025;-77
2022/02/18 04:43:48;;;;;;;16.00;2.85;;;8.20;97.70;;;;;;5032627;28;20120;-76
2022/02/18 04:46:13;;;;;;;20.65;4.53;;;8.30;97.60;;;;;;5032550;28;20432;-75
2022/02/18 04:48:39;;;;;;;11.45;3.42;;;8.30;97.60;;;;;;5032403;28;20032;-76
2022/02/18 04:51:04;;;;;;;18.85;3.92;;;8.30;97.70;;;;;;5032695;28;20018;-76
2022/02/18 04:53:30;;;;;;;24.13;3.90;;;8.30;97.80;;;;;;5032147;28;20026;-75
2022/02/18 04:55:56;;;;;;;26.83;5.30;;;8.30;97.70;;;;;;5032157;28;20037;-76
2022/02/18 04:58:21;;;;;;;22.48;4.75;;;8.30;97.80;;;;;;5032207;28;20025;-78
2022/02/18 05:00:47;;;;;;;20.88;3.72;;;8.30;97.80;;;;;;5032208;28;20045;-76
2022/02/18 05:03:12;;;;;;;13.60;3.20;;;8.30;97.80;;;;;;5032459;28;20431;-75
2022/02/18 05:05:38;;;;;;;19.10;4.15;;;8.40;97.70;;;;;;5014446;28;20485;-75
2022/02/18 05:08:04;;;;;;;19.25;3.28;;;8.40;97.70;;;;;;5031978;28;20099;-75
2022/02/18 05:10:29;;;;;;;19.20;3.67;;;8.40;97.60;;;;;;5031947;28;20026;-76
2022/02/18 05:12:55;;;;;;;17.88;3.67;;;8.40;97.70;;;;;;5031226;28;20025;-76
2022/02/18 05:15:21;;;;;;;17.38;3.97;;;8.40;97.60;;;;;;5014678;28;20021;-76
2022/02/18 05:17:48;;;;;;;10.98;3.50;;;8.50;97.50;;;;;;5031880;28;20029;-76
2022/02/18 05:20:15;;;;;;;20.30;3.85;;;8.50;97.50;;;;;;5031876;28;20087;-76
2022/02/18 05:22:41;;;;;;;15.45;3.35;;;8.50;97.40;;;;;;5031698;28;20029;-75
2022/02/18 05:25:07;;;;;;;15.07;2.85;;;8.50;97.40;;;;;;5031950;28;20152;-76
2022/02/18 05:27:32;;;;;;;20.73;3.67;;;8.40;97.50;;;;;;5031708;28;20116;-75
2022/02/18 05:29:58;;;;;;;16.17;3.63;;;8.40;97.60;;;;;;5032054;28;20203;-75
2022/02/18 05:32:24;;;;;;;14.18;2.83;;;8.50;97.50;;;;;;5014207;28;20486;-76
2022/02/18 05:34:49;;;;;;;15.20;3.10;;;8.50;97.40;;;;;;5031236;28;20599;-75
2022/02/18 05:37:15;;;;;;;18.50;3.70;;;8.50;97.50;;;;;;5031511;28;20540;-75
2022/02/18 05:39:40;;;;;;;14.52;3.10;;;8.50;97.50;;;;;;5031606;28;20030;-75
2022/02/18 05:42:06;;;;;;;20.85;3.88;;;8.50;97.50;;;;;;5031824;28;20052;-75
2022/02/18 05:44:32;;;;;;;18.02;3.83;;;8.50;97.60;;;;;;5031577;28;20493;-75
2022/02/18 05:46:59;;;;;;;14.85;3.60;;;8.50;97.50;;;;;;5031493;28;20071;-75
2022/02/18 05:49:26;;;;;;;15.07;3.55;;;8.50;97.50;;;;;;5031460;28;20030;-75
2022/02/18 05:51:51;;;;;;;16.42;3.72;;;8.70;97.60;;;;;;5031364;28;20463;-75
2022/02/18 05:54:17;;;;;;;22.42;4.07;;;8.50;97.40;;;;;;5031734;28;20033;-75
2022/02/18 05:56:42;;;;;;;20.60;3.95;;;8.50;97.60;;;;;;5031508;28;20115;-74
2022/02/18 05:59:08;;;;;;;17.40;4.05;;;8.50;97.60;;;;;;5031324;28;20037;-74
2022/02/18 06:01:33;;;;;;;17.35;4.40;;;8.40;97.70;;;;;;5031362;28;20155;-75
2022/02/18 06:03:59;;;;;;;13.73;4.28;;;8.50;97.80;;;;;;5031264;28;20362;-75
2022/02/18 06:06:27;;;;;;;21.42;4.10;;;8.50;97.80;;;;;;4993992;28;20026;-75
2022/02/18 06:08:52;;;;;;;17.88;4.70;;;8.50;97.80;;;;;;4992354;28;20042;-75
2022/02/18 06:11:18;;;;;;;16.98;5.03;;;8.50;97.90;;;;;;4990790;28;20133;-77
2022/02/18 06:13:43;;;;;;;16.42;4.95;;;8.40;97.90;;;;;;4991764;28;20100;-76
2022/02/18 06:16:09;;;;;;;17.48;5.13;;;8.50;97.90;;;;;;4991813;28;20113;-75
2022/02/18 06:18:34;;;;;;;18.27;5.43;;;8.50;97.90;;;;;;4991805;28;20515;-77
2022/02/18 06:21:00;;;;;;;19.83;5.32;;;8.50;97.90;;;;;;4992437;28;20042;-76
2022/02/18 06:23:25;;;;;;;19.05;5.53;;;8.40;98.00;;;;;;4992161;28;20547;-77
2022/02/18 06:25:51;;;;;;;23.77;6.95;;;8.40;98.10;;;;;;4995583;28;20038;-78
2022/02/18 06:28:17;;;;;;;25.45;5.78;;;8.40;98.20;;;;;;4995653;28;20471;-76
2022/02/18 06:30:43;;;;;;;25.02;7.03;;;8.40;98.30;;;;;;4995750;28;20083;-77
2022/02/18 06:33:09;;;;;;;24.92;7.13;;;8.50;98.20;;;;;;4995900;28;20109;-74
2022/02/18 06:35:39;;;;;;;24.85;8.05;;;8.40;98.40;;;;;;4995105;28;20046;-74
2022/02/18 06:38:06;;;;;;;31.55;8.88;;;8.40;98.50;;;;;;4995515;28;20053;-74
2022/02/18 06:40:32;;;;;;;21.52;8.73;;;8.40;98.80;;;;;;4995488;28;20054;-75
2022/02/18 06:42:57;;;;;;;23.23;7.78;;;8.50;98.40;;;;;;4995150;28;20026;-74
2022/02/18 06:45:24;;;;;;;20.38;8.02;;;8.50;98.40;;;;;;4995532;28;20105;-75
2022/02/18 06:47:50;;;;;;;29.55;8.65;;;8.60;98.30;;;;;;4995177;28;20146;-74
2022/02/18 06:50:17;;;;;;;28.80;9.50;;;8.70;98.30;;;;;;4996586;28;20114;-77
2022/02/18 06:52:43;;;;;;;25.45;9.40;;;8.60;98.30;;;;;;5014933;28;20415;-74
2022/02/18 06:55:09;;;;;;;24.88;10.95;;;8.60;98.30;;;;;;5014699;28;20431;-74
2022/02/18 06:57:43;;;;;;;26.58;10.10;;;8.60;98.30;;;;;;4997094;28;20076;-74
2022/02/18 07:00:10;;;;;;;33.25;11.85;;;8.70;98.60;;;;;;5014942;28;20443;-74
2022/02/18 07:02:38;;;;;;;30.70;10.02;;;8.60;98.80;;;;;;5014473;28;20040;-73
2022/02/18 07:05:08;;;;;;;32.40;11.02;;;8.60;98.90;;;;;;5014396;28;20060;-74
2022/02/18 07:07:35;;;;;;;30.38;10.52;;;8.60;99.10;;;;;;4996854;28;20461;-74
2022/02/18 07:10:04;;;;;;;32.05;11.05;;;8.70;99.20;;;;;;4997110;28;20030;-75
2022/02/18 07:12:30;;;;;;;21.73;9.82;;;8.60;99.30;;;;;;4996835;28;20022;-72
2022/02/18 07:14:56;;;;;;;35.92;10.95;;;8.60;99.40;;;;;;5014619;28;20113;-73
2022/02/18 07:17:28;;;;;;;27.90;10.00;;;8.70;99.60;;;;;;5014301;28;20109;-77
2022/02/18 07:19:55;;;;;;;30.60;10.10;;;8.80;99.60;;;;;;5014131;28;20340;-74
2022/02/18 07:22:21;;;;;;;30.52;10.38;;;8.80;99.50;;;;;;5014200;28;20474;-74
2022/02/18 07:24:47;;;;;;;22.73;10.68;;;8.80;99.70;;;;;;5014128;28;20109;-74
2022/02/18 07:27:13;;;;;;;31.98;10.70;;;8.80;99.50;;;;;;5014622;28;20033;-74
2022/02/18 07:29:40;;;;;;;32.15;10.10;;;8.80;99.80;;;;;;4996549;28;20030;-75
2022/02/18 07:32:07;;;;;;;32.78;9.65;;;8.80;99.80;;;;;;5014123;28;20324;-73
2022/02/18 07:34:33;;;;;;;24.38;9.43;;;8.80;99.70;;;;;;5013554;28;20058;-74
2022/02/18 07:36:59;;;;;;;28.02;11.40;;;8.80;99.50;;;;;;5013316;28;20048;-73
2022/02/18 07:39:25;;;;;;;27.45;12.02;;;8.90;99.50;;;;;;5014481;28;20034;-78
2022/02/18 07:41:51;;;;;;;32.17;11.15;;;8.90;99.40;;;;;;5015852;28;20026;-75
2022/02/18 07:44:16;;;;;;;23.45;8.88;;;9.00;99.20;;;;;;5015550;28;20060;-74
2022/02/18 07:46:43;;;;;;;24.73;8.75;;;9.00;99.30;;;;;;4997804;28;20402;-76
2022/02/18 07:49:10;;;;;;;24.23;8.40;;;9.00;99.50;;;;;;5014542;28;20036;-76
2022/02/18 07:51:38;;;;;;;24.80;8.17;;;9.00;99.40;;;;;;5015705;28;20032;-75
2022/02/18 07:54:04;;;;;;;29.05;10.02;;;8.90;99.40;;;;;;5017233;28;20037;-74
2022/02/18 07:56:30;;;;;;;37.88;11.70;;;8.80;99.50;;;;;;5016140;28;20056;-76
2022/02/18 07:58:56;;;;;;;27.23;8.45;;;8.80;99.60;;;;;;5016282;28;20455;-77
2022/02/18 08:01:21;;;;;;;31.35;8.45;;;8.80;99.60;;;;;;5013700;28;20490;-76
2022/02/18 08:03:47;;;;;;;26.55;9.27;;;8.80;99.70;;;;;;5013532;28;20045;-75
2022/02/18 08:06:13;;;;;;;28.10;8.15;;;8.80;99.90;;;;;;4996353;28;20030;-76
2022/02/18 08:08:42;;;;;;;27.92;7.97;;;8.80;99.50;;;;;;5013218;28;20044;-74
2022/02/18 08:11:12;;;;;;;27.50;7.38;;;8.80;99.20;;;;;;5013370;28;20101;-75
2022/02/18 08:13:38;;;;;;;24.67;6.30;;;8.80;99.50;;;;;;5013209;28;20037;-76
2022/02/18 08:16:04;;;;;;;23.92;6.63;;;8.80;99.50;;;;;;5000832;28;20097;-75
2022/02/18 08:18:30;;;;;;;21.40;5.93;;;8.80;99.50;;;;;;5015450;28;20037;-75
2022/02/18 08:20:55;;;;;;;23.63;6.40;;;8.80;99.40;;;;;;5016359;28;20026;-78
2022/02/18 08:23:21;;;;;;;25.80;5.47;;;8.80;99.50;;;;;;5015500;28;20117;-77
2022/02/18 08:25:47;;;;;;;18.25;5.15;;;8.80;99.10;;;;;;5014540;28;20041;-77
2022/02/18 08:28:13;;;;;;;27.35;6.07;;;8.80;99.20;;;;;;4996899;28;20041;-76
2022/02/18 08:30:38;;;;;;;17.20;5.07;;;8.70;99.30;;;;;;5014791;28;20030;-77
2022/02/18 08:33:04;;;;;;;18.42;5.22;;;8.80;99.30;;;;;;4996443;28;20084;-74
2022/02/18 08:35:30;;;;;;;16.00;4.20;;;8.80;99.10;;;;;;5014337;28;20050;-76
2022/02/18 08:37:57;;;;;;;21.88;5.40;;;8.80;99.00;;;;;;5015849;28;20152;-77
2022/02/18 08:40:22;;;;;;;18.90;4.22;;;8.80;98.90;;;;;;4996408;28;20045;-76
2022/02/18 08:42:48;;;;;;;21.33;4.80;;;8.80;98.90;;;;;;4996012;28;20068;-77
2022/02/18 08:45:14;;;;;;;21.02;5.47;;;8.80;98.90;;;;;;5013639;28;20049;-78
2022/02/18 08:47:40;;;;;;;14.80;4.38;;;8.80;98.80;;;;;;5011846;28;20102;-76
2022/02/18 08:50:09;;;;;;;20.02;4.72;;;8.80;98.80;;;;;;5013121;28;20030;-75
2022/02/18 08:52:38;;;;;;;16.13;3.80;;;8.70;98.70;;;;;;5012948;28;20034;-76
2022/02/18 08:55:06;;;;;;;19.02;3.10;;;8.80;98.60;;;;;;5013364;28;20048;-76
2022/02/18 08:57:32;;;;;;;17.35;3.28;;;8.80;98.50;;;;;;5012550;28;20029;-74
2022/02/18 08:59:58;;;;;;;18.08;3.22;;;8.80;98.30;;;;;;5012951;28;20033;-72
2022/02/18 09:02:24;;;;;;;15.07;3.30;;;8.90;98.40;;;;;;5012532;28;20103;-76
2022/02/18 09:04:51;;;;;;;18.45;3.10;;;8.90;98.20;;;;;;4995122;28;20450;-75
2022/02/18 09:07:17;;;;;;;9.10;2.30;;;8.90;98.10;;;;;;4994891;28;20034;-75
2022/02/18 09:09:43;;;;;;;16.70;3.00;;;8.90;98.10;;;;;;5012471;28;20034;-79
2022/02/18 09:12:09;;;;;;;14.70;3.25;;;8.90;98.00;;;;;;5013384;28;20018;-79
2022/02/18 09:14:34;;;;;;;10.57;2.78;;;8.80;97.90;;;;;;5012986;28;20376;-78
2022/02/18 09:17:00;;;;;;;13.35;2.80;;;8.90;98.00;;;;;;5012853;28;20113;-78
2022/02/18 09:19:26;;;;;;;18.77;3.85;;;8.80;97.80;;;;;;5013137;28;20092;-78
2022/02/18 09:21:51;;;;;;;12.13;2.78;;;8.90;97.70;;;;;;5013926;28;20030;-76
2022/02/18 09:24:17;;;;;;;11.32;2.67;;;8.90;97.80;;;;;;4996066;28;20030;-76
2022/02/18 09:26:42;;;;;;;14.65;3.08;;;8.90;97.70;;;;;;5013816;28;20088;-77
2022/02/18 09:29:08;;;;;;;16.63;3.55;;;8.90;97.60;;;;;;5013199;28;20033;-77
2022/02/18 09:31:35;;;;;;;14.07;2.88;;;8.80;97.40;;;;;;5012859;28;20033;-78
2022/02/18 09:34:01;;;;;;;16.90;4.00;;;8.90;97.50;;;;;;5013315;28;20026;-77
2022/02/18 09:36:28;;;;;;;15.85;3.35;;;9.00;97.50;;;;;;5013080;28;20452;-78
2022/02/18 09:38:54;;;;;;;13.73;2.22;;;9.00;97.60;;;;;;5013029;28;20045;-77
2022/02/18 09:41:19;;;;;;;17.73;2.67;;;9.00;97.70;;;;;;5013198;28;20065;-78
2022/02/18 09:43:47;;;;;;;12.80;2.47;;;9.00;97.80;;;;;;5012930;28;20128;-76
2022/02/18 09:46:13;;;;;;;13.30;2.92;;;9.00;98.10;;;;;;5012952;28;20061;-75
2022/02/18 09:48:39;;;;;;;12.70;2.88;;;9.00;97.90;;;;;;5012502;28;20029;-75
2022/02/18 09:51:05;;;;;;;12.32;3.25;;;9.10;97.90;;;;;;5014370;28;20104;-77
2022/02/18 09:53:31;;;;;;;16.75;3.20;;;9.10;98.00;;;;;;4996053;28;20363;-78
2022/02/18 09:55:57;;;;;;;13.45;2.50;;;9.10;98.00;;;;;;5012771;28;20381;-77
2022/02/18 09:58:23;;;;;;;10.73;3.00;;;9.10;97.90;;;;;;5013641;28;20420;-77
2022/02/18 10:00:50;;;;;;;14.23;3.05;;;9.20;98.00;;;;;;5018943;28;20033;-76
2022/02/18 10:03:17;;;;;;;21.08;2.97;;;9.20;98.20;;;;;;5002662;28;20030;-78
2022/02/18 10:05:42;;;;;;;17.15;2.75;;;9.20;98.20;;;;;;5019485;28;20371;-76
2022/02/18 10:08:14;;;;;;;20.25;3.78;;;9.20;98.40;;;;;;5019300;28;20030;-77
2022/02/18 10:10:42;;;;;;;14.55;3.95;;;9.20;98.60;;;;;;5020384;28;20033;-75
2022/02/18 10:13:45;;;;;;;12.52;2.97;;;9.20;98.70;;;;;;5020973;28;20099;-78
2022/02/18 10:16:14;;;;;;;16.58;2.60;;;9.20;98.90;;;;;;4978948;28;20037;-77
2022/02/18 10:18:58;;;;;;;13.75;2.53;;;9.10;99.30;;;;;;4998985;28;20034;-77
2022/02/18 10:21:33;;;;;;;13.73;2.80;;;9.10;99.70;;;;;;5021440;28;20040;-80
2022/02/18 10:24:15;;;;;;;13.25;2.13;;;8.90;99.90;;;;;;5020674;28;20045;-79
2022/02/18 10:26:46;;;;;;;15.68;2.65;;;8.90;99.90;;;;;;5020139;28;20037;-77
2022/02/18 10:29:24;;;;;;;25.15;3.20;;;8.90;99.90;;;;;;5021366;28;20084;-78
2022/02/18 10:32:10;;;;;;;16.83;2.72;;;8.90;99.90;;;;;;5019551;28;20030;-78
2022/02/18 10:35:04;;;;;;;15.70;2.88;;;8.80;99.90;;;;;;5019905;28;20068;-80
2022/02/18 10:37:31;;;;;;;18.90;3.58;;;8.80;99.90;;;;;;5019775;28;20026;-80
2022/02/18 10:40:10;;;;;;;20.52;3.50;;;8.80;99.90;;;;;;5022124;28;20451;-79
2022/02/18 10:42:36;;;;;;;10.82;2.00;;;8.80;99.90;;;;;;5018532;28;20029;-74
2022/02/18 10:45:18;;;;;;;10.90;2.65;;;8.80;99.90;;;;;;5022127;28;20029;-77
2022/02/18 10:47:49;;;;;;;17.17;2.45;;;8.80;99.90;;;;;;5022783;28;20451;-79
2022/02/18 10:50:23;;;;;;;17.80;2.58;;;8.70;99.90;;;;;;5018536;28;20034;-75
2022/02/18 10:53:12;;;;;;;17.85;2.55;;;8.70;99.90;;;;;;5018795;28;20044;-78
2022/02/18 10:55:58;;;;;;;14.45;2.88;;;8.70;99.90;;;;;;5022336;28;20046;-79
2022/02/18 10:58:26;;;;;;;18.67;2.72;;;8.70;99.90;;;;;;5001375;28;20329;-79
2022/02/18 11:01:09;;;;;;;18.02;2.38;;;8.70;99.90;;;;;;5020722;28;20034;-76
2022/02/18 11:03:39;;;;;;;21.70;5.47;;;8.70;99.90;;;;;;5021306;28;20022;-80
2022/02/18 11:06:14;;;;;;;18.55;3.90;;;8.80;99.90;;;;;;5022198;28;20014;-79
2022/02/18 11:08:57;;;;;;;21.50;3.28;;;8.90;99.90;;;;;;5018357;28;20057;-78
2022/02/18 11:11:28;;;;;;;21.92;3.03;;;9.00;99.90;;;;;;5013933;28;20029;-73
2022/02/18 11:13:55;;;;;;;19.17;3.08;;;9.00;99.90;;;;;;5014062;28;20034;-74
2022/02/18 11:16:22;;;;;;;18.33;3.63;;;9.20;99.90;;;;;;5013993;28;20045;-76
2022/02/18 11:18:49;;;;;;;11.82;2.53;;;9.20;99.90;;;;;;5014758;28;20108;-77
2022/02/18 11:21:16;;;;;;;15.68;2.80;;;9.20;99.90;;;;;;5014681;28;20494;-78
2022/02/18 11:23:45;;;;;;;8.88;2.65;;;9.30;99.90;;;;;;5014205;28;20396;-76
2022/02/18 11:26:17;;;;;;;20.83;2.88;;;9.30;99.90;;;;;;5013947;28;20034;-73
2022/02/18 11:28:44;;;;;;;11.30;2.00;;;9.30;99.90;;;;;;5013719;28;20034;-72
2022/02/18 11:31:18;;;;;;;12.23;2.30;;;9.40;99.90;;;;;;5014168;28;20351;-74
2022/02/18 11:34:03;;;;;;;23.38;4.88;;;9.40;99.90;;;;;;5013596;28;20041;-72
2022/02/18 11:36:55;;;;;;;21.08;2.97;;;9.50;99.90;;;;;;4996496;28;20438;-74
2022/02/18 11:39:36;;;;;;;19.42;2.92;;;9.60;99.90;;;;;;4996617;28;20034;-74
2022/02/18 11:42:40;;;;;;;16.60;2.75;;;9.70;99.90;;;;;;5013385;28;20038;-74
2022/02/18 11:45:14;;;;;;;13.25;2.80;;;9.70;99.90;;;;;;5013628;28;20074;-73
2022/02/18 11:47:39;;;;;;;14.98;2.75;;;9.80;99.90;;;;;;5013514;28;20037;-72
2022/02/18 11:50:13;;;;;;;9.50;1.85;;;9.90;99.90;;;;;;5013651;28;20042;-74
2022/02/18 11:52:50;;;;;;;16.90;1.83;;;9.90;99.90;;;;;;5013708;28;20038;-76
2022/02/18 11:55:35;;;;;;;9.40;1.85;;;10.00;99.90;;;;;;5013164;28;20050;-76
2022/02/18 11:58:03;;;;;;;13.82;2.05;;;10.00;99.90;;;;;;5013363;28;20051;-74
2022/02/18 12:00:49;;;;;;;9.35;1.85;;;10.10;99.90;;;;;;5013444;28;20381;-74
2022/02/18 12:03:20;;;;;;;12.27;1.65;;;10.10;99.90;;;;;;5014318;28;20423;-72
2022/02/18 12:06:09;;;;;;;11.35;1.88;;;10.10;99.90;;;;;;4996887;28;20038;-77
2022/02/18 12:08:37;;;;;;;5.88;1.65;;;10.10;99.90;;;;;;5014089;28;20021;-77
2022/02/18 12:11:12;;;;;;;11.23;1.50;;;10.20;99.90;;;;;;4994497;28;20023;-77
2022/02/18 12:13:51;;;;;;;7.75;1.75;;;10.20;99.90;;;;;;4994850;28;20168;-77
2022/02/18 12:16:18;;;;;;;10.13;1.95;;;10.20;99.90;;;;;;4994925;28;20041;-76
2022/02/18 12:19:02;;;;;;;8.45;1.65;;;10.30;99.90;;;;;;4994890;28;20054;-76
2022/02/18 12:21:28;;;;;;;11.18;1.60;;;10.40;99.90;;;;;;4994867;28;20417;-74
2022/02/18 12:23:54;;;;;;;13.00;3.95;;;10.40;99.90;;;;;;4994499;28;20474;-77
2022/02/18 12:26:20;;;;;;;13.60;3.53;;;10.40;99.90;;;;;;4995033;28;20038;-75
2022/02/18 12:28:49;;;;;;;9.30;2.35;;;10.50;99.90;;;;;;4994739;28;20042;-77
2022/02/18 12:31:16;;;;;;;8.13;3.10;;;10.60;99.90;;;;;;4994746;28;20460;-78
2022/02/18 12:33:43;;;;;;;8.32;1.38;;;10.60;99.90;;;;;;4993688;28;20057;-78
2022/02/18 12:36:15;;;;;;;8.57;1.85;;;10.60;99.90;;;;;;4993765;28;20091;-78
2022/02/18 12:38:45;;;;;;;3.83;1.40;;;10.60;99.90;;;;;;4992940;28;20031;-77
2022/02/18 12:41:16;;;;;;;3.63;1.27;;;10.60;99.90;;;;;;4993307;28;20181;-78
2022/02/18 12:43:42;;;;;;;4.15;1.20;;;10.70;99.90;;;;;;4994217;28;20026;-78
2022/02/18 12:46:12;;;;;;;6.25;1.45;;;10.70;99.90;;;;;;4994613;28;20198;-76
2022/02/18 12:48:40;;;;;;;7.53;1.50;;;10.70;99.90;;;;;;4993626;28;20030;-76
2022/02/18 12:51:23;;;;;;;14.90;1.55;;;10.80;99.90;;;;;;4994339;28;20022;-78